Time;durP1;ratioP1;P1;durP2;ratioP2;P2;SDS_P1;SDS_P2;PMS_P1;PMS_P2;Temp;Humidity;BMP_temperature;BMP_pressure;BME280_temperature;BME280_humidity;BME280_pressure;Samples;Min_cycle;Max_cycle;Signal;HPM_P1;HPM_P2
2022/11/15 00:01:18;;;;;;;79.10;40.40;;;;;;;3.82;100.00;98175.88;104873;1313;22256;-87
2022/11/15 00:04:04;;;;;;;71.70;35.50;;;;;;;3.77;100.00;98175.77;105276;1311;22859;-87
2022/11/15 00:06:51;;;;;;;40.00;29.80;;;;;;;3.70;100.00;98170.23;104902;1327;22219;-87
2022/11/15 00:09:37;;;;;;;38.20;32.90;;;;;;;3.66;100.00;98170.40;104938;1326;22158;-87
2022/11/15 00:12:30;;;;;;;56.30;35.10;;;;;;;3.67;100.00;98167.37;104825;1322;22909;-86
2022/11/15 00:15:17;;;;;;;82.20;35.40;;;;;;;3.69;100.00;98163.73;104893;1326;22990;-87
2022/11/15 00:18:04;;;;;;;88.50;37.20;;;;;;;3.69;100.00;98162.13;105195;1321;22870;-85
2022/11/15 00:20:51;;;;;;;63.20;33.60;;;;;;;3.69;100.00;98160.63;104894;1327;22415;-85
2022/11/15 00:23:37;;;;;;;46.10;32.70;;;;;;;3.68;100.00;98154.48;105138;1312;22122;-85
2022/11/15 00:26:24;;;;;;;61.40;32.40;;;;;;;3.69;100.00;98154.83;105335;1315;22861;-87
2022/11/15 00:29:10;;;;;;;45.10;31.50;;;;;;;3.72;100.00;98156.04;104912;1327;22220;-87
2022/11/15 00:31:57;;;;;;;52.20;33.20;;;;;;;3.69;100.00;98156.42;105257;1312;22898;-87
2022/11/15 00:34:43;;;;;;;62.00;34.50;;;;;;;3.64;100.00;98154.40;104923;1332;22167;-86
2022/11/15 00:37:29;;;;;;;82.00;34.20;;;;;;;3.62;100.00;98156.45;104920;1331;22112;-86
2022/11/15 00:40:16;;;;;;;60.00;32.10;;;;;;;3.60;100.00;98155.84;105381;1308;22902;-86
2022/11/15 00:43:02;;;;;;;76.80;29.20;;;;;;;3.59;100.00;98153.00;104884;1327;22232;-86
2022/11/15 00:45:49;;;;;;;42.40;27.60;;;;;;;3.60;100.00;98150.92;105344;1324;22257;-86
2022/11/15 00:48:36;;;;;;;69.40;29.50;;;;;;;3.57;100.00;98146.89;105348;1320;22204;-86
2022/11/15 00:51:22;;;;;;;66.80;32.20;;;;;;;3.58;100.00;98148.23;104875;1327;22267;-87
2022/11/15 00:54:31;;;;;;;113.80;35.30;;;;;;;3.61;100.00;98147.48;104926;1327;22137;-87
2022/11/15 00:57:17;;;;;;;52.50;37.00;;;;;;;3.64;100.00;98154.02;104920;1327;22904;-87
2022/11/15 01:00:04;;;;;;;51.10;30.90;;;;;;;3.65;100.00;98153.34;105299;1320;22199;-86
2022/11/15 01:02:50;;;;;;;72.70;32.90;;;;;;;3.64;100.00;98154.17;105354;1324;22166;-88
2022/11/15 01:05:37;;;;;;;40.30;31.50;;;;;;;3.66;100.00;98152.73;105320;1320;22215;-88
2022/11/15 01:08:24;;;;;;;67.70;29.50;;;;;;;3.68;100.00;98156.03;105044;1324;22631;-87
2022/11/15 01:11:12;;;;;;;93.60;34.60;;;;;;;3.73;100.00;98153.38;105342;1319;22199;-87
2022/11/15 01:13:58;;;;;;;64.50;33.90;;;;;;;3.72;100.00;98149.59;105340;1305;22124;-86
2022/11/15 01:16:44;;;;;;;49.70;32.90;;;;;;;3.73;100.00;98150.29;104684;1327;22257;-86
2022/11/15 01:19:31;;;;;;;77.70;31.70;;;;;;;3.78;100.00;98141.61;105299;1320;22208;-87
2022/11/15 01:22:17;;;;;;;74.70;30.10;;;;;;;3.82;100.00;98138.88;104914;1327;22164;-84
2022/11/15 01:25:04;;;;;;;67.30;32.20;;;;;;;3.84;100.00;98138.20;105328;1320;22066;-87
2022/11/15 01:27:51;;;;;;;95.80;30.90;;;;;;;3.79;100.00;98144.83;104944;1322;23054;-86
2022/11/15 01:30:37;;;;;;;64.80;29.90;;;;;;;3.74;100.00;98143.20;104918;1327;22239;-87
2022/11/15 01:33:24;;;;;;;68.40;30.10;;;;;;;3.72;100.00;98142.65;105070;1326;22180;-83
2022/11/15 01:36:18;;;;;;;44.50;28.80;;;;;;;3.71;100.00;98140.95;105111;1327;22097;-82
2022/11/15 01:39:04;;;;;;;49.50;30.30;;;;;;;3.71;100.00;98134.17;105495;1307;22183;-85
2022/11/15 01:41:51;;;;;;;52.20;29.60;;;;;;;3.72;100.00;98132.64;105297;1321;22125;-82
2022/11/15 01:44:44;;;;;;;47.80;30.90;;;;;;;3.70;100.00;98129.30;105231;1321;22187;-87
2022/11/15 01:47:37;;;;;;;41.80;29.40;;;;;;;3.63;100.00;98124.43;104868;1321;22088;-86
2022/11/15 01:50:30;;;;;;;30.60;25.40;;;;;;;3.63;100.00;98118.95;105356;1318;22162;-88
2022/11/15 01:53:19;;;;;;;32.20;25.60;;;;;;;3.62;100.00;98114.08;104939;1327;22108;-87
2022/11/15 01:56:12;;;;;;;37.40;26.30;;;;;;;3.59;100.00;98113.23;104802;1327;22802;-87
2022/11/15 01:59:02;;;;;;;40.90;28.30;;;;;;;3.55;100.00;98108.03;104825;1319;22095;-87
2022/11/15 02:01:50;;;;;;;51.30;29.80;;;;;;;3.52;100.00;98101.05;105343;1311;22224;-87
2022/11/15 02:04:46;;;;;;;46.70;28.60;;;;;;;3.48;100.00;98100.27;104857;1327;22211;-87
2022/11/15 02:07:35;;;;;;;35.80;27.80;;;;;;;3.45;100.00;98098.15;105316;1315;22152;-87
2022/11/15 02:10:24;;;;;;;29.90;26.00;;;;;;;3.40;100.00;98094.46;105349;1320;22221;-85
2022/11/15 02:13:11;;;;;;;28.90;24.80;;;;;;;3.33;100.00;98094.70;104909;1322;22100;-86
2022/11/15 02:16:43;;;;;;;28.50;24.50;;;;;;;3.25;100.00;98092.63;104928;1326;22941;-87
2022/11/15 02:19:32;;;;;;;30.80;25.00;;;;;;;3.21;100.00;98087.88;105319;1320;22153;-85
2022/11/15 02:22:24;;;;;;;29.90;27.10;;;;;;;3.19;100.00;98086.47;105355;1312;22137;-84
2022/11/15 02:25:29;;;;;;;31.10;27.50;;;;;;;3.25;100.00;98084.95;105358;1318;22907;-86
2022/11/15 02:28:24;;;;;;;49.10;28.90;;;;;;;3.29;100.00;98081.27;105338;1317;22253;-85
2022/11/15 02:31:24;;;;;;;;;;;;;;;3.31;100.00;98078.58;105449;1320;22302;-86
2022/11/15 02:34:27;;;;;;;68.30;31.90;;;;;;;3.25;100.00;98075.10;105337;1312;22837;-85
2022/11/15 02:37:55;;;;;;;53.60;28.70;;;;;;;3.22;100.00;98080.38;105436;1319;22393;-84
2022/11/15 02:40:49;;;;;;;45.20;30.80;;;;;;;3.17;100.00;98080.42;104803;1333;22287;-84
2022/11/15 02:44:11;;;;;;;34.60;31.00;;;;;;;3.16;100.00;98072.85;104811;1333;22251;-81
2022/11/15 02:47:14;;;;;;;;;;;;;;;3.18;100.00;98074.16;104156;1342;22147;-86
2022/11/15 02:50:07;;;;;;;42.40;30.20;;;;;;;3.23;100.00;98067.93;104154;1342;22910;-86
2022/11/15 02:52:54;;;;;;;34.80;28.00;;;;;;;3.23;100.00;98061.16;104136;1342;22865;-87
2022/11/15 02:55:48;;;;;;;49.60;31.00;;;;;;;3.23;100.00;98057.77;104339;1342;22181;-83
2022/11/15 02:59:05;;;;;;;40.00;27.80;;;;;;;3.20;100.00;98052.77;104245;1341;22297;-84
2022/11/15 03:02:28;;;;;;;36.20;27.50;;;;;;;3.16;100.00;98048.45;104429;1331;22224;-84
2022/11/15 03:05:17;;;;;;;35.50;26.00;;;;;;;3.12;100.00;98049.46;104139;1342;22256;-85
2022/11/15 03:08:45;;;;;;;41.40;29.00;;;;;;;3.12;100.00;98043.45;104280;1332;22232;-87
2022/11/15 03:11:41;;;;;;;45.50;31.30;;;;;;;3.09;100.00;98042.83;104119;1341;22996;-87
2022/11/15 03:14:33;;;;;;;30.60;26.40;;;;;;;3.05;100.00;98042.35;104193;1331;22207;-86
2022/11/15 03:17:25;;;;;;;34.40;25.30;;;;;;;3.02;100.00;98037.41;104291;1335;22270;-85
2022/11/15 03:20:13;;;;;;;30.80;24.50;;;;;;;3.00;100.00;98033.38;104622;1327;22252;-85
2022/11/15 03:23:10;;;;;;;27.30;24.40;;;;;;;2.99;100.00;98033.56;104726;1316;22131;-84
2022/11/15 03:26:00;;;;;;;63.90;26.20;;;;;;;3.01;100.00;98036.13;104952;1327;22241;-87
2022/11/15 03:28:55;;;;;;;66.10;28.00;;;;;;;2.97;100.00;98031.98;104818;1327;22770;-86
2022/11/15 03:31:46;;;;;;;47.60;24.90;;;;;;;2.91;100.00;98030.23;105056;1320;22302;-87
2022/11/15 03:34:49;;;;;;;45.90;29.70;;;;;;;2.90;100.00;98022.73;104852;1327;22387;-86
2022/11/15 03:37:59;;;;;;;39.80;28.50;;;;;;;2.92;100.00;98019.86;105259;1320;22151;-87
2022/11/15 03:40:54;;;;;;;40.30;29.20;;;;;;;2.93;100.00;98017.12;104926;1326;22935;-87
2022/11/15 03:43:56;;;;;;;44.00;28.00;;;;;;;2.94;100.00;98008.95;104824;1327;22179;-88
2022/11/15 03:47:07;;;;;;;37.30;27.30;;;;;;;2.99;100.00;98006.65;104912;1321;22204;-87
2022/11/15 03:50:10;;;;;;;66.70;31.30;;;;;;;2.97;100.00;97999.98;105162;1305;22182;-88
2022/11/15 03:52:57;;;;;;;36.00;25.60;;;;;;;2.92;100.00;97998.44;104951;1327;22933;-88
2022/11/15 03:55:44;;;;;;;41.60;27.20;;;;;;;2.92;100.00;97992.79;104922;1329;22101;-88
2022/11/15 03:58:30;;;;;;;50.10;24.40;;;;;;;2.95;100.00;97988.66;104853;1327;22754;-86
2022/11/15 04:01:17;;;;;;;37.20;23.60;;;;;;;2.96;100.00;97993.79;104842;1327;22088;-87
2022/11/15 04:04:03;;;;;;;47.60;25.30;;;;;;;2.96;100.00;97985.00;104975;1327;22121;-87
2022/11/15 04:06:50;;;;;;;71.70;25.90;;;;;;;2.94;100.00;97983.23;105283;1310;22248;-85
2022/11/15 04:10:01;;;;;;;33.80;23.20;;;;;;;2.87;100.00;97974.41;105129;1320;22331;-87
2022/11/15 04:12:47;;;;;;;44.70;24.40;;;;;;;2.80;100.00;97968.20;104884;1327;22256;-86
2022/11/15 04:15:34;;;;;;;30.10;21.80;;;;;;;2.75;100.00;97967.17;104802;1327;22211;-86
2022/11/15 04:18:21;;;;;;;30.20;23.20;;;;;;;2.73;100.00;97963.31;105280;1311;22196;-85
2022/11/15 04:24:13;;;;;;;30.00;24.70;;;;;;;2.72;100.00;97957.60;104916;1327;22238;-87
2022/11/15 04:27:00;;;;;;;23.90;21.70;;;;;;;2.66;100.00;97952.36;104989;1327;22225;-87
2022/11/15 04:29:47;;;;;;;25.60;22.70;;;;;;;2.66;100.00;97953.11;104821;1327;22261;-88
2022/11/15 04:32:33;;;;;;;25.50;23.10;;;;;;;2.65;100.00;97954.16;105325;1319;22258;-87
2022/11/15 04:35:20;;;;;;;25.30;23.00;;;;;;;2.64;100.00;97948.36;105344;1319;22160;-84
2022/11/15 04:38:08;;;;;;;28.60;25.70;;;;;;;2.62;100.00;97941.83;104796;1327;22206;-88
2022/11/15 04:40:54;;;;;;;26.10;22.80;;;;;;;2.56;100.00;97942.61;104883;1319;22070;-85
2022/11/15 04:43:41;;;;;;;24.70;22.40;;;;;;;2.49;100.00;97939.68;104903;1327;22193;-87
2022/11/15 04:46:27;;;;;;;25.30;22.80;;;;;;;2.44;100.00;97937.76;104793;1327;22182;-88
2022/11/15 04:49:14;;;;;;;26.50;23.90;;;;;;;2.43;100.00;97934.61;104943;1327;22237;-88
2022/11/15 04:52:00;;;;;;;28.70;26.20;;;;;;;2.43;100.00;97929.52;104787;1326;22189;-87
2022/11/15 04:54:47;;;;;;;31.30;28.30;;;;;;;2.40;100.00;97925.63;104906;1327;22096;-89
2022/11/15 04:57:33;;;;;;;32.10;29.20;;;;;;;2.37;100.00;97921.21;104980;1326;22270;-93
2022/11/15 05:00:19;;;;;;;26.70;23.90;;;;;;;2.33;100.00;97919.11;104895;1327;22191;-88
2022/11/15 05:06:11;;;;;;;25.30;23.10;;;;;;;2.32;100.00;97913.65;104945;1326;22192;-91
2022/11/15 05:08:57;;;;;;;24.90;22.70;;;;;;;2.31;100.00;97910.89;105198;1320;22814;-90
2022/11/15 05:11:43;;;;;;;50.70;46.40;;;;;;;2.28;100.00;97905.73;105055;1320;22177;-86
2022/11/15 05:14:30;;;;;;;28.80;26.20;;;;;;;2.15;100.00;97906.61;104906;1326;22211;-88
2022/11/15 05:17:16;;;;;;;26.60;24.40;;;;;;;2.08;100.00;97907.73;105071;1320;22896;-89
2022/11/15 05:20:04;;;;;;;30.60;27.90;;;;;;;2.02;100.00;97903.83;105344;1307;22194;-88
2022/11/15 05:22:50;;;;;;;34.50;31.30;;;;;;;2.01;100.00;97901.84;105330;1305;22259;-87
2022/11/15 05:25:37;;;;;;;27.80;25.50;;;;;;;2.00;100.00;97903.10;105310;1315;22064;-89
2022/11/15 05:28:23;;;;;;;28.60;26.10;;;;;;;1.87;100.00;97898.02;104912;1327;22264;-88
2022/11/15 05:31:13;;;;;;;23.60;21.50;;;;;;;1.69;100.00;97898.05;105334;1320;22874;-88
2022/11/15 05:34:03;;;;;;;25.10;22.90;;;;;;;1.54;100.00;97891.84;104859;1327;23112;-88
2022/11/15 05:36:50;;;;;;;25.90;23.90;;;;;;;1.49;100.00;97896.81;105059;1315;22210;-87
2022/11/15 05:39:36;;;;;;;36.70;33.70;;;;;;;1.49;100.00;97890.92;105345;1320;22182;-89
2022/11/15 05:42:25;;;;;;;37.70;34.30;;;;;;;1.50;100.00;97884.77;104879;1327;22265;-89
2022/11/15 05:45:11;;;;;;;33.90;31.00;;;;;;;1.49;100.00;97887.73;105325;1319;22087;-89
2022/11/15 05:47:59;;;;;;;39.90;36.50;;;;;;;1.47;100.00;97884.56;104845;1327;22114;-86
2022/11/15 05:50:47;;;;;;;38.30;35.00;;;;;;;1.46;100.00;97877.27;104934;1327;22230;-88
2022/11/15 05:53:34;;;;;;;40.20;36.60;;;;;;;1.48;100.00;97879.07;104927;1327;22236;-87
2022/11/15 05:56:21;;;;;;;31.20;28.50;;;;;;;1.47;100.00;97877.08;105286;1315;22665;-90
2022/11/15 05:59:09;;;;;;;31.00;28.30;;;;;;;1.38;100.00;97876.45;105323;1319;22972;-87
2022/11/15 06:01:56;;;;;;;34.30;31.20;;;;;;;1.34;100.00;97879.63;105317;1320;22153;-89
2022/11/15 06:04:42;;;;;;;33.70;30.70;;;;;;;1.27;100.00;97879.50;105309;1320;22087;-90
2022/11/15 06:07:29;;;;;;;43.20;39.40;;;;;;;1.24;100.00;97870.80;105130;1305;22162;-89
2022/11/15 06:10:16;;;;;;;34.10;31.10;;;;;;;1.30;100.00;97873.13;105110;1320;22261;-88
2022/11/15 06:13:04;;;;;;;32.40;29.30;;;;;;;1.26;100.00;97880.22;104914;1327;22135;-88
2022/11/15 06:15:50;;;;;;;42.80;39.00;;;;;;;1.12;100.00;97874.73;104893;1322;22210;-86
2022/11/15 06:18:37;;;;;;;48.00;43.80;;;;;;;1.08;100.00;97874.70;105288;1320;22150;-87
2022/11/15 06:21:24;;;;;;;42.40;38.70;;;;;;;1.05;100.00;97876.02;105169;1320;22138;-84
2022/11/15 06:24:10;;;;;;;36.80;33.50;;;;;;;1.01;100.00;97875.27;104821;1327;22196;-86
2022/11/15 06:26:57;;;;;;;46.30;42.10;;;;;;;1.02;100.00;97877.61;104935;1327;22881;-88
2022/11/15 06:29:44;;;;;;;49.40;45.00;;;;;;;1.08;100.00;97879.10;104920;1326;22246;-87
2022/11/15 06:32:30;;;;;;;52.30;47.40;;;;;;;1.19;100.00;97876.92;104855;1327;22193;-86
2022/11/15 06:35:17;;;;;;;64.00;57.70;;;;;;;1.28;100.00;97877.39;104849;1327;23018;-89
2022/11/15 06:38:09;;;;;;;51.40;46.90;;;;;;;1.36;100.00;97880.14;104802;1327;22258;-87
2022/11/15 06:41:01;;;;;;;59.30;53.90;;;;;;;1.34;100.00;97879.52;105367;1305;22184;-88
2022/11/15 06:43:48;;;;;;;61.60;56.40;;;;;;;1.40;100.00;97876.91;105436;1308;22089;-92
2022/11/15 06:46:34;;;;;;;63.70;58.10;;;;;;;1.51;100.00;97876.66;104919;1319;22244;-91
2022/11/15 06:49:20;;;;;;;65.70;59.60;;;;;;;1.62;100.00;97877.43;105095;1327;22951;-89
2022/11/15 06:52:06;;;;;;;64.90;59.00;;;;;;;1.69;100.00;97875.16;105114;1327;22972;-91
2022/11/15 06:54:53;;;;;;;101.50;90.80;;;;;;;1.73;100.00;97878.09;105519;1314;22236;-88
2022/11/15 06:57:50;;;;;;;74.00;66.80;;;;;;;1.77;100.00;97880.27;105631;1289;21911;-86
2022/11/15 07:00:41;;;;;;;71.40;64.60;;;;;;;1.82;100.00;97882.90;105480;1291;24926;-87
2022/11/15 07:03:28;;;;;;;63.70;57.90;;;;;;;1.90;100.00;97884.09;105732;1286;22924;-87
2022/11/15 07:06:15;;;;;;;65.90;60.40;;;;;;;1.98;100.00;97881.91;105575;1295;22268;-86
2022/11/15 07:09:03;;;;;;;69.90;63.90;;;;;;;2.08;100.00;97882.05;105054;1298;22103;-90
2022/11/15 07:11:49;;;;;;;68.70;62.80;;;;;;;2.06;100.00;97868.11;105165;1294;22140;-89
2022/11/15 07:14:36;;;;;;;67.40;61.30;;;;;;;2.19;100.00;97874.92;105257;1294;22122;-89
2022/11/15 07:17:22;;;;;;;58.70;53.60;;;;;;;2.32;100.00;97880.73;105119;1326;22148;-91
2022/11/15 07:20:10;;;;;;;62.70;56.10;;;;;;;2.44;100.00;97879.69;105125;1319;159248;-89
2022/11/15 07:23:01;;;;;;;61.20;55.30;;;;;;;2.60;100.00;97876.95;105539;1317;22897;-88
2022/11/15 07:25:47;;;;;;;76.10;68.70;;;;;;;2.72;100.00;97876.24;105518;1319;22221;-91
2022/11/15 07:28:34;;;;;;;80.20;72.60;;;;;;;2.83;100.00;97877.80;105724;1320;22025;-81
2022/11/15 07:31:20;;;;;;;73.70;66.30;;;;;;;2.91;100.00;97873.70;105188;1299;22213;-90
2022/11/15 07:34:07;;;;;;;67.70;61.20;;;;;;;3.00;100.00;97875.44;105205;1285;22243;-89
2022/11/15 07:36:53;;;;;;;62.90;56.80;;;;;;;3.12;100.00;97876.05;104865;1328;22288;-91
2022/11/15 07:39:40;;;;;;;69.10;62.60;;;;;;;3.24;100.00;97870.94;104946;1299;22095;-87
2022/11/15 07:45:33;;;;;;;94.00;76.90;;;;;;;3.55;100.00;97865.63;105055;1327;22260;-94
2022/11/15 07:48:19;;;;;;;58.20;52.40;;;;;;;3.63;100.00;97867.61;105467;1319;22131;-88
2022/11/15 07:51:07;;;;;;;62.10;56.50;;;;;;;3.69;100.00;97863.87;104959;1326;22218;-91
2022/11/15 07:53:59;;;;;;;59.20;53.90;;;;;;;3.73;100.00;97866.41;105035;1327;22118;-89
2022/11/15 07:56:45;;;;;;;55.80;50.90;;;;;;;3.78;100.00;97864.15;105119;1327;22559;-89
2022/11/15 07:59:32;;;;;;;49.30;44.80;;;;;;;3.84;100.00;97863.46;105499;1318;22187;-89
2022/11/15 08:02:18;;;;;;;60.10;54.80;;;;;;;3.92;100.00;97864.09;105071;1327;22251;-88
2022/11/15 08:05:05;;;;;;;53.70;49.20;;;;;;;3.97;100.00;97863.66;105490;1308;22197;-89
2022/11/15 08:07:52;;;;;;;44.40;40.40;;;;;;;4.01;100.00;97865.48;105047;1321;22127;-89
2022/11/15 08:10:38;;;;;;;44.40;40.20;;;;;;;4.08;100.00;97861.44;105010;1327;22239;-87
2022/11/15 08:13:26;;;;;;;40.90;37.40;;;;;;;4.22;100.00;97858.36;105101;1326;22194;-87
2022/11/15 08:16:12;;;;;;;64.80;58.80;;;;;;;4.33;100.00;97863.45;105634;1317;22129;-90
2022/11/15 08:18:59;;;;;;;47.70;43.70;;;;;;;4.41;100.00;97862.63;105586;1317;22133;-88
2022/11/15 08:21:45;;;;;;;66.70;60.70;;;;;;;4.51;100.00;97860.87;105145;1318;22365;-90
2022/11/15 08:24:32;;;;;;;62.30;56.80;;;;;;;4.62;100.00;97864.91;105052;1327;22421;-89
2022/11/15 08:27:18;;;;;;;57.30;52.20;;;;;;;4.79;100.00;97863.80;105565;1317;22174;-89
2022/11/15 08:30:06;;;;;;;62.80;57.30;;;;;;;5.00;100.00;97858.16;105049;1327;22219;-89
2022/11/15 08:32:53;;;;;;;63.30;57.70;;;;;;;5.21;100.00;97858.95;105072;1324;22772;-88
2022/11/15 08:35:41;;;;;;;59.20;54.20;;;;;;;5.33;100.00;97858.90;105509;1317;22189;-88
2022/11/15 08:38:28;;;;;;;52.90;48.30;;;;;;;5.41;100.00;97854.32;105384;1317;22076;-85
2022/11/15 08:41:32;;;;;;;53.10;48.40;;;;;;;5.53;100.00;97859.67;105596;1317;22169;-88
2022/11/15 08:44:18;;;;;;;52.30;48.20;;;;;;;5.69;100.00;97851.23;105554;1317;22249;-91
2022/11/15 08:47:05;;;;;;;78.30;58.40;;;;;;;5.88;100.00;97848.55;105526;1311;22344;-85
2022/11/15 08:49:52;;;;;;;185.10;73.20;;;;;;;6.02;100.00;97852.61;105600;1312;22263;-90
2022/11/15 08:52:38;;;;;;;51.10;46.10;;;;;;;6.14;100.00;97849.13;105052;1324;22343;-88
2022/11/15 08:55:24;;;;;;;47.60;43.60;;;;;;;6.26;100.00;97851.14;105476;1317;22195;-87
2022/11/15 08:58:11;;;;;;;38.20;34.70;;;;;;;6.41;100.00;97845.09;105568;1301;22220;-90
2022/11/15 09:00:57;;;;;;;34.10;30.90;;;;;;;6.57;100.00;97853.72;105037;1326;22232;-91
2022/11/15 09:03:44;;;;;;;40.70;37.20;;;;;;;6.68;100.00;97851.54;105532;1317;22185;-89
2022/11/15 09:06:31;;;;;;;40.40;36.90;;;;;;;6.77;100.00;97852.45;105060;1327;22261;-88
2022/11/15 09:09:17;;;;;;;42.60;38.50;;;;;;;6.87;100.00;97855.30;105559;1305;22200;-87
2022/11/15 09:12:04;;;;;;;42.10;38.20;;;;;;;6.99;100.00;97857.34;105019;1309;22168;-89
2022/11/15 09:14:51;;;;;;;43.60;39.40;;;;;;;7.15;100.00;97855.47;105689;1309;22444;-84
2022/11/15 09:17:37;;;;;;;36.10;33.00;;;;;;;7.28;100.00;97855.39;105687;1312;22156;-85
2022/11/15 09:20:23;;;;;;;47.70;43.30;;;;;;;7.38;100.00;97854.47;105563;1311;22237;-89
2022/11/15 09:23:10;;;;;;;45.10;41.40;;;;;;;7.48;100.00;97852.95;105086;1326;22105;-86
2022/11/15 09:26:01;;;;;;;39.70;36.30;;;;;;;7.59;100.00;97850.08;105599;1311;22144;-88
2022/11/15 09:28:47;;;;;;;41.40;37.60;;;;;;;7.70;100.00;97845.06;104903;1327;22214;-88
2022/11/15 09:31:34;;;;;;;39.60;36.10;;;;;;;7.84;100.00;97845.21;105388;1317;22184;-89
2022/11/15 09:34:21;;;;;;;42.40;38.40;;;;;;;7.94;100.00;97843.34;105556;1311;22176;-88
2022/11/15 09:37:07;;;;;;;43.50;39.80;;;;;;;8.07;100.00;97839.52;105605;1315;22667;-90
2022/11/15 09:39:53;;;;;;;34.90;31.80;;;;;;;8.18;100.00;97838.34;105557;1317;22213;-90
2022/11/15 09:42:49;;;;;;;34.20;30.20;;;;;;;8.27;100.00;97836.90;105073;1326;22192;-83
2022/11/15 09:45:38;;;;;;;;;;;;;;;8.41;100.00;97827.38;105060;1327;22295;-84
2022/11/15 09:48:57;;;;;;;31.10;28.20;;;;;;;8.55;100.00;97824.53;105412;1317;22210;-86
2022/11/15 09:51:29;;;;;;;32.00;29.10;;;;;;;8.66;100.00;97820.20;105533;1315;22260;-87
2022/11/15 09:54:18;;;;;;;32.90;29.70;;;;;;;8.77;100.00;97811.26;105314;1317;22169;-88
2022/11/15 09:57:14;;;;;;;34.40;29.20;;;;;;;8.95;100.00;97804.84;105549;1304;22241;-87
2022/11/15 10:00:02;;;;;;;28.50;25.30;;;;;;;9.08;100.00;97801.42;105537;1317;22210;-89
2022/11/15 10:03:07;;;;;;;29.70;26.40;;;;;;;9.19;100.00;97796.86;105551;1312;22954;-85
2022/11/15 10:05:47;;;;;;;34.10;28.00;;;;;;;9.28;100.00;97789.92;105046;1327;22244;-86
2022/11/15 10:08:47;;;;;;;28.30;24.50;;;;;;;9.36;100.00;97781.60;105568;1317;22196;-85
2022/11/15 10:11:19;;;;;;;30.80;26.90;;;;;;;9.48;100.00;97775.80;105027;1327;22886;-84
2022/11/15 10:14:12;;;;;;;31.00;25.10;;;;;;;9.62;100.00;97765.98;104896;1327;22247;-83
2022/11/15 10:17:10;;;;;;;23.20;20.80;;;;;;;9.76;100.00;97765.81;104897;1327;22196;-84
2022/11/15 10:19:45;;;;;;;24.20;21.90;;;;;;;9.84;99.03;97760.17;105061;1327;22111;-86
2022/11/15 10:22:26;;;;;;;25.10;22.60;;;;;;;9.87;97.49;97760.66;105070;1326;22253;-89
2022/11/15 10:25:03;;;;;;;24.20;21.90;;;;;;;9.94;98.08;97759.52;104982;1327;22108;-86
2022/11/15 10:27:31;;;;;;;24.40;21.90;;;;;;;10.02;97.66;97758.66;105531;1314;22244;-86
2022/11/15 10:29:59;;;;;;;25.20;23.00;;;;;;;10.11;96.93;97760.55;105046;1326;22240;-86
2022/11/15 10:32:27;;;;;;;26.20;23.60;;;;;;;10.21;97.57;97747.30;105318;1312;22185;-88
2022/11/15 10:34:55;;;;;;;24.50;21.80;;;;;;;10.28;95.15;97748.86;105563;1317;22421;-87
2022/11/15 10:37:31;;;;;;;24.80;21.20;;;;;;;10.36;95.00;97746.33;105549;1309;22833;-87
2022/11/15 10:40:14;;;;;;;24.00;21.10;;;;;;;10.51;95.63;97744.80;105538;1317;22134;-88
2022/11/15 10:42:42;;;;;;;28.20;23.60;;;;;;;10.69;96.58;97741.13;105178;1321;22119;-88
2022/11/15 10:45:30;;;;;;;34.00;28.10;;;;;;;10.84;96.25;97738.19;105077;1327;22863;-87
2022/11/15 10:48:13;;;;;;;34.20;30.60;;;;;;;10.97;95.78;97736.13;105143;1307;22122;-88
2022/11/15 10:50:44;;;;;;;204.90;77.10;;;;;;;11.07;95.86;97729.08;105550;1317;22231;-90
2022/11/15 10:53:37;;;;;;;41.50;37.40;;;;;;;11.19;96.16;97723.82;104888;1320;22174;-90
2022/11/15 10:56:11;;;;;;;44.80;33.50;;;;;;;11.31;95.06;97723.20;105066;1326;22237;-85
2022/11/15 10:58:42;;;;;;;33.70;30.50;;;;;;;11.36;93.45;97717.55;105085;1327;22156;-86
2022/11/15 11:01:19;;;;;;;31.00;27.60;;;;;;;11.37;91.65;97714.82;105078;1327;22248;-85
2022/11/15 11:04:01;;;;;;;29.80;26.80;;;;;;;11.44;91.91;97708.73;104951;1327;22136;-87
2022/11/15 11:06:30;;;;;;;28.60;26.00;;;;;;;12.22;92.86;97703.86;105085;1327;22199;-86
2022/11/15 11:09:05;;;;;;;27.50;24.90;;;;;;;13.45;87.93;97700.84;105444;1306;22210;-89
2022/11/15 11:11:49;;;;;;;22.70;19.60;;;;;;;14.43;86.44;97697.45;104982;1326;22344;-89
2022/11/15 11:14:30;;;;;;;20.10;18.20;;;;;;;15.16;84.58;97699.03;104822;1327;22912;-88
2022/11/15 11:17:16;;;;;;;23.80;21.30;;;;;;;15.41;81.25;97699.52;105345;1317;22138;-88
2022/11/15 11:20:30;;;;;;;24.10;21.70;;;;;;;15.12;84.50;97697.42;105535;1317;22225;-85
2022/11/15 11:23:23;;;;;;;22.20;20.10;;;;;;;15.08;83.11;97694.83;104929;1330;22243;-87
2022/11/15 11:26:27;;;;;;;23.20;20.90;;;;;;;15.45;83.43;97688.96;104940;1325;22572;-89
2022/11/15 11:29:17;;;;;;;21.80;18.20;;;;;;;16.31;82.29;97688.98;104787;1325;22221;-89
2022/11/15 11:32:06;;;;;;;16.70;15.00;;;;;;;16.55;77.76;97687.46;105073;1325;22223;-86
2022/11/15 11:35:15;;;;;;;17.80;16.00;;;;;;;16.87;70.69;97688.91;105062;1321;22192;-88
2022/11/15 11:37:57;;;;;;;19.50;17.80;;;;;;;17.06;68.24;97682.98;105499;1319;22275;-90
2022/11/15 11:40:29;;;;;;;21.40;18.80;;;;;;;17.22;66.66;97683.52;105436;1319;22221;-88
2022/11/15 11:43:18;;;;;;;20.30;18.30;;;;;;;17.36;67.42;97675.96;105453;1319;22088;-88
2022/11/15 11:45:50;;;;;;;22.00;19.10;;;;;;;17.50;64.53;97676.63;104952;1326;22214;-86
2022/11/15 11:48:30;;;;;;;20.20;18.30;;;;;;;17.49;61.05;97675.05;105095;1327;22095;-85
2022/11/15 11:51:04;;;;;;;;;;;;;;;17.42;58.86;97672.62;104965;1326;22153;-87
2022/11/15 11:53:50;;;;;;;23.40;20.80;;;;;;;17.26;62.53;97669.38;105125;1326;22779;-90
2022/11/15 11:56:31;;;;;;;23.70;21.60;;;;;;;17.25;62.64;97668.73;105319;1324;22115;-88
2022/11/15 11:59:10;;;;;;;23.00;20.80;;;;;;;16.79;62.01;97671.63;105065;1329;22430;-86
2022/11/15 12:01:43;;;;;;;22.50;20.40;;;;;;;15.95;59.73;97670.70;105063;1330;22067;-89
2022/11/15 12:04:17;;;;;;;26.50;24.00;;;;;;;14.93;61.03;97668.30;104909;1330;22365;-84
2022/11/15 12:06:50;;;;;;;28.80;25.80;;;;;;;14.79;60.84;97663.67;105043;1326;22250;-83
2022/11/15 12:09:50;;;;;;;26.40;23.70;;;;;;;14.39;60.40;97667.43;105094;1327;22161;-85
2022/11/15 12:12:31;;;;;;;28.30;25.80;;;;;;;13.38;62.43;97665.95;105214;1330;22220;-88
2022/11/15 12:15:14;;;;;;;26.90;24.50;;;;;;;12.66;63.86;97660.40;105865;1306;21909;-85
2022/11/15 12:17:42;;;;;;;27.80;25.10;;;;;;;12.19;65.75;97657.17;105094;1327;22179;-85
2022/11/15 12:20:23;;;;;;;27.70;25.20;;;;;;;11.96;66.10;97650.09;105227;1327;22203;-87
2022/11/15 12:23:01;;;;;;;27.60;24.90;;;;;;;11.79;66.47;97644.61;105773;1302;22084;-88
2022/11/15 12:25:50;;;;;;;28.50;26.00;;;;;;;11.63;66.66;97639.91;105358;1319;23012;-87
2022/11/15 12:28:28;;;;;;;40.50;26.60;;;;;;;11.42;67.28;97640.96;105062;1327;22839;-88
2022/11/15 12:31:05;;;;;;;34.30;29.10;;;;;;;11.31;67.51;97633.67;105037;1326;22252;-87
2022/11/15 12:33:47;;;;;;;29.60;26.70;;;;;;;11.21;68.22;97633.30;105529;1301;22099;-87
2022/11/15 12:36:21;;;;;;;28.90;26.20;;;;;;;11.16;68.83;97628.58;105079;1327;22239;-85
2022/11/15 12:39:08;;;;;;;29.60;26.60;;;;;;;11.10;68.40;97626.39;105080;1326;22211;-87
2022/11/15 12:41:41;;;;;;;28.60;26.00;;;;;;;11.02;68.76;97621.73;105315;1304;22170;-88
2022/11/15 12:44:31;;;;;;;27.60;25.10;;;;;;;10.96;69.26;97618.94;104895;1327;22847;-87
2022/11/15 12:47:10;;;;;;;28.30;25.30;;;;;;;10.96;69.84;97618.34;104946;1326;22929;-85
2022/11/15 12:49:38;;;;;;;29.60;25.50;;;;;;;10.97;70.12;97612.84;105431;1312;22732;-84
2022/11/15 12:52:08;;;;;;;29.40;26.30;;;;;;;10.95;70.29;97606.27;105415;1319;22162;-87